Time;durP1;ratioP1;P1;durP2;ratioP2;P2;SDS_P1;SDS_P2;PMS_P1;PMS_P2;Temp;Humidity;BMP_temperature;BMP_pressure;BME280_temperature;BME280_humidity;BME280_pressure;Samples;Min_cycle;Max_cycle;Signal;HPM_P1;HPM_P2
2023/06/26 00:01:57;;;;;;;9.70;8.43;;;20.80;99.90;;;;;;5095312;28;20197;-70
2023/06/26 00:04:23;;;;;;;10.67;8.97;;;20.80;99.90;;;;;;5100543;28;20252;-70
2023/06/26 00:06:48;;;;;;;8.97;8.07;;;20.80;99.90;;;;;;5088289;28;20265;-70
2023/06/26 00:09:14;;;;;;;9.77;8.70;;;20.80;99.90;;;;;;5092092;28;20176;-70
2023/06/26 00:11:40;;;;;;;9.30;8.40;;;20.80;99.90;;;;;;5091492;28;20215;-70
2023/06/26 00:14:06;;;;;;;10.23;9.13;;;20.70;99.90;;;;;;5091311;28;20263;-70
2023/06/26 00:16:32;;;;;;;11.20;9.70;;;20.70;99.90;;;;;;5102315;28;20170;-70
2023/06/26 00:18:58;;;;;;;10.27;9.17;;;20.70;99.90;;;;;;5095004;28;20980;-69
2023/06/26 00:21:25;;;;;;;10.80;9.77;;;20.70;99.90;;;;;;5092302;28;20291;-69
2023/06/26 00:23:51;;;;;;;11.63;10.50;;;20.70;99.90;;;;;;5092793;28;20449;-70
2023/06/26 00:26:17;;;;;;;11.90;10.67;;;20.70;99.90;;;;;;5091426;28;20414;-69
2023/06/26 00:28:42;;;;;;;11.13;10.13;;;20.60;99.90;;;;;;5091204;28;20403;-69
2023/06/26 00:31:08;;;;;;;11.23;10.13;;;20.60;99.90;;;;;;5095132;28;20171;-69
2023/06/26 00:33:33;;;;;;;10.70;9.70;;;20.60;99.90;;;;;;5099347;28;20682;-70
2023/06/26 00:35:59;;;;;;;11.03;9.93;;;20.60;99.90;;;;;;5088712;28;20176;-69
2023/06/26 00:38:25;;;;;;;10.80;9.70;;;20.50;99.90;;;;;;5091083;28;20552;-71
2023/06/26 00:40:50;;;;;;;11.23;10.07;;;20.50;99.90;;;;;;5090995;28;20192;-71
2023/06/26 00:43:16;;;;;;;11.17;10.07;;;20.60;99.90;;;;;;5071776;28;20183;-70
2023/06/26 00:45:42;;;;;;;11.17;10.03;;;20.60;99.90;;;;;;5108501;28;20684;-69
2023/06/26 00:48:11;;;;;;;10.10;9.20;;;20.50;99.90;;;;;;5100529;28;20164;-69
2023/06/26 00:50:37;;;;;;;12.37;9.40;;;20.50;99.90;;;;;;5087647;28;20180;-69
2023/06/26 00:53:03;;;;;;;12.30;11.00;;;20.60;99.90;;;;;;5092595;28;20521;-69
2023/06/26 00:55:29;;;;;;;12.00;10.90;;;20.60;99.90;;;;;;5091381;28;20186;-69
2023/06/26 00:57:55;;;;;;;11.03;9.97;;;20.60;99.90;;;;;;5092243;28;20424;-69
2023/06/26 01:00:21;;;;;;;9.80;8.80;;;20.60;99.90;;;;;;5090284;28;20446;-71
2023/06/26 01:02:47;;;;;;;11.23;10.13;;;20.60;99.90;;;;;;5086456;28;20436;-70
2023/06/26 01:05:20;;;;;;;10.90;9.90;;;20.60;99.90;;;;;;5094039;28;20169;-70
2023/06/26 01:07:47;;;;;;;11.17;9.83;;;20.70;99.90;;;;;;5093248;28;20584;-70
2023/06/26 01:10:13;;;;;;;10.13;9.23;;;20.70;99.90;;;;;;5092593;28;20401;-70
2023/06/26 01:12:39;;;;;;;10.13;9.10;;;20.70;99.90;;;;;;5098148;28;20984;-69
2023/06/26 01:15:05;;;;;;;12.07;9.60;;;20.70;99.90;;;;;;5087215;28;20626;-70
2023/06/26 01:17:32;;;;;;;11.37;10.00;;;20.70;99.90;;;;;;5089856;28;20414;-70
2023/06/26 01:20:06;;;;;;;11.03;9.83;;;20.70;99.90;;;;;;5099769;28;20405;-70
2023/06/26 01:22:45;;;;;;;11.73;10.57;;;20.70;99.90;;;;;;5092585;28;20920;-70
2023/06/26 01:25:38;;;;;;;14.53;11.03;;;20.70;99.90;;;;;;5085477;28;20404;-70
2023/06/26 01:28:05;;;;;;;11.83;10.63;;;20.70;99.90;;;;;;5090566;28;20847;-70
2023/06/26 01:30:32;;;;;;;11.00;10.00;;;20.70;99.90;;;;;;5096374;28;20456;-69
2023/06/26 01:33:00;;;;;;;12.73;10.50;;;20.70;99.90;;;;;;5082812;28;20449;-68
2023/06/26 01:35:26;;;;;;;11.83;10.70;;;20.70;99.90;;;;;;5091325;28;20892;-68
2023/06/26 01:37:52;;;;;;;11.27;10.17;;;20.70;99.90;;;;;;5089925;28;20420;-69
2023/06/26 01:40:17;;;;;;;11.67;9.57;;;20.70;99.90;;;;;;5088689;28;20982;-70
2023/06/26 01:42:43;;;;;;;11.97;10.87;;;20.70;99.90;;;;;;5090565;28;20210;-70
2023/06/26 01:45:23;;;;;;;14.50;10.90;;;20.70;99.90;;;;;;5085667;28;20175;-70
2023/06/26 01:47:52;;;;;;;11.30;10.23;;;20.70;99.90;;;;;;5089799;28;20244;-70
2023/06/26 01:50:23;;;;;;;10.47;9.50;;;20.60;99.90;;;;;;5087926;28;20399;-69
2023/06/26 01:52:53;;;;;;;11.87;10.53;;;20.60;99.90;;;;;;5090652;28;20427;-70
2023/06/26 01:55:33;;;;;;;9.30;8.50;;;20.60;99.90;;;;;;5087144;28;20430;-70
2023/06/26 01:57:59;;;;;;;10.53;9.53;;;20.60;99.90;;;;;;5088411;28;20775;-70
2023/06/26 02:00:26;;;;;;;10.73;9.63;;;20.60;99.90;;;;;;5100432;28;20988;-71
2023/06/26 02:02:52;;;;;;;12.00;10.80;;;20.60;99.90;;;;;;5094048;28;20421;-71
2023/06/26 02:05:18;;;;;;;11.17;9.97;;;20.60;99.90;;;;;;5098038;28;20460;-70
2023/06/26 02:07:43;;;;;;;14.03;12.70;;;20.60;99.90;;;;;;5105391;28;20897;-69
2023/06/26 02:10:09;;;;;;;12.40;10.80;;;20.50;99.90;;;;;;5089709;28;20167;-70
2023/06/26 02:12:36;;;;;;;12.00;10.80;;;20.50;99.90;;;;;;5070977;28;20190;-69
2023/06/26 02:15:02;;;;;;;11.77;10.50;;;20.50;99.90;;;;;;5094404;28;20411;-69
2023/06/26 02:17:28;;;;;;;13.23;11.90;;;20.50;99.90;;;;;;5091272;28;20446;-70
2023/06/26 02:19:53;;;;;;;13.13;11.70;;;20.50;99.90;;;;;;5093496;28;20927;-71
2023/06/26 02:22:19;;;;;;;13.40;12.00;;;20.50;99.90;;;;;;5090369;28;20235;-71
2023/06/26 02:24:45;;;;;;;12.87;11.57;;;20.50;99.90;;;;;;5086781;28;20180;-71
2023/06/26 02:27:10;;;;;;;14.07;12.13;;;20.50;99.90;;;;;;5095899;28;20169;-70
2023/06/26 02:29:36;;;;;;;12.27;11.07;;;20.50;99.90;;;;;;5086402;28;20176;-70
2023/06/26 02:32:02;;;;;;;12.57;11.37;;;20.50;99.90;;;;;;5088477;28;20285;-70
2023/06/26 02:34:28;;;;;;;11.70;10.60;;;20.50;99.90;;;;;;5092126;28;20408;-71
2023/06/26 02:36:55;;;;;;;12.10;11.00;;;20.50;99.90;;;;;;5092990;28;20315;-71
2023/06/26 02:39:20;;;;;;;15.13;12.60;;;20.40;99.90;;;;;;5097472;28;20433;-68
2023/06/26 02:41:46;;;;;;;12.00;10.80;;;20.50;99.90;;;;;;5086397;28;20527;-68
2023/06/26 02:44:12;;;;;;;12.73;11.53;;;20.40;99.90;;;;;;5095526;28;20414;-70
2023/06/26 02:46:38;;;;;;;12.10;10.90;;;20.40;99.90;;;;;;5089275;28;20221;-70
2023/06/26 02:49:04;;;;;;;11.97;10.83;;;20.40;99.90;;;;;;5093792;28;20211;-70
2023/06/26 02:51:31;;;;;;;12.93;11.63;;;20.40;99.90;;;;;;5100236;28;20415;-70
2023/06/26 02:53:57;;;;;;;12.27;11.07;;;20.40;99.90;;;;;;5091923;28;20176;-70
2023/06/26 02:56:22;;;;;;;12.97;11.63;;;20.40;99.90;;;;;;5089213;28;21005;-68
2023/06/26 02:58:48;;;;;;;11.20;10.10;;;20.40;99.90;;;;;;5095574;28;20199;-70
2023/06/26 03:01:14;;;;;;;13.10;11.73;;;20.40;99.90;;;;;;5103583;28;20202;-70
2023/06/26 03:03:41;;;;;;;13.13;11.93;;;20.30;99.90;;;;;;5086675;28;20669;-70
2023/06/26 03:06:07;;;;;;;14.43;13.13;;;20.30;99.90;;;;;;5083695;28;20493;-70
2023/06/26 03:08:35;;;;;;;14.00;12.60;;;20.30;99.90;;;;;;5090616;28;20406;-70
2023/06/26 03:11:01;;;;;;;12.53;11.43;;;20.30;99.90;;;;;;5101013;28;20554;-68
2023/06/26 03:13:26;;;;;;;14.23;12.83;;;20.20;99.90;;;;;;5092976;28;20516;-71
2023/06/26 03:15:52;;;;;;;13.43;12.23;;;20.20;99.90;;;;;;5097815;28;20184;-70
2023/06/26 03:18:18;;;;;;;12.93;11.67;;;20.20;99.90;;;;;;5097241;28;20249;-71
2023/06/26 03:20:44;;;;;;;13.73;12.43;;;20.20;99.90;;;;;;5094938;28;20194;-69
2023/06/26 03:23:09;;;;;;;14.13;12.80;;;20.20;99.90;;;;;;5096037;28;20539;-67
2023/06/26 03:25:35;;;;;;;14.10;11.90;;;20.20;99.90;;;;;;5089852;28;20229;-69
2023/06/26 03:28:00;;;;;;;13.17;11.87;;;20.20;99.90;;;;;;5099843;28;20183;-70
2023/06/26 03:30:26;;;;;;;13.97;12.40;;;20.20;99.90;;;;;;5092587;28;20240;-71
2023/06/26 03:32:51;;;;;;;14.30;12.90;;;20.20;99.90;;;;;;5099214;28;20200;-70
2023/06/26 03:35:17;;;;;;;13.30;12.10;;;20.20;99.90;;;;;;5102651;28;20190;-70
2023/06/26 03:37:43;;;;;;;13.60;12.33;;;20.20;99.90;;;;;;5089498;28;20382;-70
2023/06/26 03:40:09;;;;;;;13.67;12.37;;;20.20;99.90;;;;;;5094198;28;20413;-70
2023/06/26 03:42:35;;;;;;;15.27;13.67;;;20.20;99.90;;;;;;5093585;28;20191;-70
2023/06/26 03:45:00;;;;;;;14.13;12.77;;;20.20;99.90;;;;;;5099242;28;20811;-71
2023/06/26 03:47:26;;;;;;;13.20;12.00;;;20.30;99.90;;;;;;5091964;28;20190;-69
2023/06/26 03:49:52;;;;;;;14.03;12.70;;;20.40;99.90;;;;;;5092907;28;20177;-70
2023/06/26 03:52:17;;;;;;;15.63;13.93;;;20.50;99.90;;;;;;5102071;28;20249;-70
2023/06/26 03:54:43;;;;;;;13.70;12.30;;;20.60;99.90;;;;;;5092540;28;20180;-70
2023/06/26 03:57:09;;;;;;;12.90;11.60;;;20.70;99.90;;;;;;5072669;28;20174;-70
2023/06/26 03:59:34;;;;;;;13.63;12.20;;;20.70;99.90;;;;;;5102327;28;20650;-70
2023/06/26 04:02:00;;;;;;;14.47;13.07;;;20.90;99.90;;;;;;5084243;28;20198;-68
2023/06/26 04:04:26;;;;;;;13.63;12.33;;;21.00;99.90;;;;;;5092585;28;20636;-70
2023/06/26 04:06:52;;;;;;;14.63;11.90;;;21.10;99.90;;;;;;5092909;28;20701;-69
2023/06/26 04:09:19;;;;;;;11.80;10.87;;;21.10;99.90;;;;;;5089943;28;20405;-70
2023/06/26 04:11:44;;;;;;;14.77;13.33;;;21.20;99.90;;;;;;5092537;28;20174;-70
2023/06/26 04:14:10;;;;;;;17.10;15.40;;;21.20;99.90;;;;;;5089342;28;20467;-71
2023/06/26 04:16:36;;;;;;;16.47;13.67;;;21.30;99.90;;;;;;5105097;28;20503;-70
2023/06/26 04:19:02;;;;;;;14.63;13.10;;;21.90;99.90;;;;;;5089997;28;20172;-69
2023/06/26 04:21:28;;;;;;;15.00;12.23;;;22.60;99.90;;;;;;5096000;28;20188;-70
2023/06/26 04:23:54;;;;;;;12.17;10.87;;;23.20;99.90;;;;;;5092064;28;20862;-70
2023/06/26 04:26:19;;;;;;;12.20;11.10;;;23.60;99.90;;;;;;5094288;28;20167;-68
2023/06/26 04:28:45;;;;;;;12.53;11.33;;;23.80;99.90;;;;;;5094453;28;20410;-69
2023/06/26 04:31:11;;;;;;;12.13;10.93;;;23.60;99.90;;;;;;5089831;28;20189;-69
2023/06/26 04:33:37;;;;;;;11.63;10.50;;;23.50;99.90;;;;;;5092934;28;20281;-69
2023/06/26 04:36:04;;;;;;;13.27;11.97;;;23.50;99.90;;;;;;5091691;28;20656;-70
2023/06/26 04:38:30;;;;;;;13.00;11.80;;;23.40;99.90;;;;;;5092281;28;20409;-71
2023/06/26 04:40:56;;;;;;;11.40;10.20;;;23.30;99.90;;;;;;5090069;28;20505;-70
2023/06/26 04:43:22;;;;;;;11.57;10.43;;;23.40;99.90;;;;;;5090007;28;20425;-69
2023/06/26 04:45:47;;;;;;;12.80;11.40;;;23.50;99.90;;;;;;5091877;28;20502;-71
2023/06/26 04:48:13;;;;;;;14.43;10.40;;;23.20;99.90;;;;;;5089839;28;20180;-71
2023/06/26 04:50:40;;;;;;;12.20;10.90;;;23.30;99.90;;;;;;5092573;28;20173;-71
2023/06/26 04:53:05;;;;;;;11.10;10.20;;;23.50;99.90;;;;;;5095706;28;20557;-71
2023/06/26 04:55:31;;;;;;;11.23;10.23;;;23.30;99.90;;;;;;5090593;28;20412;-70
2023/06/26 04:57:57;;;;;;;11.63;10.63;;;23.50;99.90;;;;;;5090505;28;20178;-71
2023/06/26 05:00:24;;;;;;;11.07;10.07;;;23.30;99.90;;;;;;5092943;28;20670;-71
2023/06/26 05:03:00;;;;;;;11.37;10.37;;;23.40;99.90;;;;;;5095352;28;20185;-70
2023/06/26 05:05:26;;;;;;;10.93;9.83;;;23.50;99.90;;;;;;5098849;28;20929;-69
2023/06/26 05:07:54;;;;;;;11.43;10.37;;;23.90;99.90;;;;;;5089048;28;20493;-70
2023/06/26 05:10:19;;;;;;;11.60;10.50;;;24.30;99.90;;;;;;5090632;28;20927;-69
2023/06/26 05:12:45;;;;;;;12.17;11.07;;;24.10;99.90;;;;;;5090881;28;20425;-70
2023/06/26 05:15:10;;;;;;;13.00;10.70;;;24.50;99.90;;;;;;5089602;28;20248;-70
2023/06/26 05:17:36;;;;;;;10.27;9.37;;;24.70;99.90;;;;;;5102409;28;20575;-69
2023/06/26 05:20:03;;;;;;;13.00;10.63;;;24.90;99.90;;;;;;5088481;28;20164;-70
2023/06/26 05:22:29;;;;;;;11.40;10.30;;;24.70;99.90;;;;;;5091615;28;20216;-69
2023/06/26 05:24:59;;;;;;;12.33;11.13;;;24.80;99.90;;;;;;5133340;22;21010;-70
2023/06/26 05:27:25;;;;;;;10.00;9.10;;;25.20;99.90;;;;;;5091599;28;20412;-71
2023/06/26 05:29:50;;;;;;;10.87;9.60;;;25.40;99.90;;;;;;5091638;28;20426;-70
2023/06/26 05:32:20;;;;;;;10.90;9.93;;;25.30;99.90;;;;;;5094741;28;20900;-70
2023/06/26 05:34:51;;;;;;;10.30;9.40;;;25.00;99.90;;;;;;5078513;28;20205;-70
2023/06/26 05:37:21;;;;;;;10.43;9.53;;;25.20;99.90;;;;;;5076157;28;20414;-71
2023/06/26 05:39:47;;;;;;;11.87;10.87;;;25.10;99.90;;;;;;5082032;28;20423;-70
2023/06/26 05:42:13;;;;;;;11.60;10.50;;;24.80;99.90;;;;;;5084403;28;20459;-70
2023/06/26 05:44:39;;;;;;;11.30;10.30;;;24.60;99.90;;;;;;5079572;28;20829;-70
2023/06/26 05:47:05;;;;;;;10.57;9.53;;;24.60;99.90;;;;;;5078043;28;20510;-70
2023/06/26 05:49:31;;;;;;;12.50;11.33;;;24.70;99.90;;;;;;5074432;28;20250;-70
2023/06/26 05:51:56;;;;;;;10.47;9.57;;;24.90;99.90;;;;;;5078037;28;20418;-71
2023/06/26 05:54:24;;;;;;;16.27;10.47;;;24.80;99.90;;;;;;5082349;28;20191;-70
2023/06/26 05:56:56;;;;;;;11.17;10.10;;;24.90;99.90;;;;;;5081941;28;20416;-71
2023/06/26 05:59:23;;;;;;;11.27;10.17;;;25.10;99.90;;;;;;5081925;28;20439;-70
2023/06/26 06:01:48;;;;;;;13.13;9.80;;;25.60;99.90;;;;;;5078876;28;20456;-70
2023/06/26 06:04:15;;;;;;;12.03;9.70;;;25.80;99.90;;;;;;5082466;28;20736;-70
2023/06/26 06:06:41;;;;;;;10.10;9.07;;;26.10;99.90;;;;;;5080800;28;20445;-69
2023/06/26 06:09:06;;;;;;;8.77;7.83;;;26.50;99.90;;;;;;5082223;28;20541;-70
2023/06/26 06:11:32;;;;;;;9.60;8.00;;;26.70;99.90;;;;;;5082223;28;20579;-69
2023/06/26 06:13:59;;;;;;;9.03;8.23;;;26.60;99.90;;;;;;5077101;28;20193;-69
2023/06/26 06:16:25;;;;;;;8.33;7.63;;;27.40;99.90;;;;;;5081541;28;20181;-70
2023/06/26 06:18:50;;;;;;;8.53;7.73;;;27.20;99.90;;;;;;5079958;28;20473;-69
2023/06/26 06:21:16;;;;;;;9.17;8.37;;;27.50;99.90;;;;;;5081456;28;20217;-70
2023/06/26 06:23:42;;;;;;;9.57;7.33;;;27.50;99.90;;;;;;5080786;28;20178;-70
2023/06/26 06:26:07;;;;;;;7.70;6.63;;;27.40;99.90;;;;;;5087363;28;20192;-69
2023/06/26 06:28:33;;;;;;;7.40;6.70;;;28.10;99.90;;;;;;5082328;28;20173;-70
2023/06/26 06:30:59;;;;;;;8.30;7.50;;;28.50;99.90;;;;;;5079033;28;20678;-70
2023/06/26 06:33:24;;;;;;;9.17;8.27;;;28.50;99.90;;;;;;5081297;28;20547;-70
2023/06/26 06:35:50;;;;;;;6.87;6.37;;;28.20;99.90;;;;;;5074503;28;20334;-71
2023/06/26 06:38:15;;;;;;;9.00;7.40;;;28.80;99.90;;;;;;5081820;28;20204;-71
2023/06/26 06:40:41;;;;;;;7.03;6.33;;;28.90;99.90;;;;;;5080403;28;20201;-71
2023/06/26 06:43:06;;;;;;;6.97;6.37;;;28.90;99.90;;;;;;5078346;28;20467;-71
2023/06/26 06:45:32;;;;;;;6.70;6.10;;;29.30;99.90;;;;;;5082830;28;20207;-71
2023/06/26 06:47:58;;;;;;;7.33;6.67;;;29.20;99.90;;;;;;5065393;28;20541;-71
2023/06/26 06:50:23;;;;;;;8.00;7.20;;;29.20;99.90;;;;;;5081362;28;20205;-70
2023/06/26 06:52:49;;;;;;;7.03;6.43;;;29.40;99.90;;;;;;5084571;28;20200;-71
2023/06/26 06:55:14;;;;;;;6.13;5.53;;;29.30;99.90;;;;;;5084915;28;20193;-70
2023/06/26 06:57:40;;;;;;;6.17;5.67;;;29.10;99.90;;;;;;5083966;28;20588;-71
2023/06/26 07:00:08;;;;;;;6.80;6.10;;;29.00;99.90;;;;;;5076319;28;20170;-71
2023/06/26 07:02:35;;;;;;;7.63;6.67;;;30.00;99.90;;;;;;5084948;28;20342;-71
2023/06/26 07:05:03;;;;;;;6.47;5.87;;;29.80;99.90;;;;;;5082533;28;20431;-69
2023/06/26 07:07:33;;;;;;;6.73;5.73;;;29.50;99.90;;;;;;5085121;28;20945;-70
2023/06/26 07:10:04;;;;;;;7.03;6.50;;;30.50;99.90;;;;;;5093722;28;20506;-69
2023/06/26 07:12:30;;;;;;;6.43;5.93;;;30.40;99.90;;;;;;5087250;28;21045;-70
2023/06/26 07:14:56;;;;;;;5.70;5.30;;;30.10;99.90;;;;;;5074073;28;20523;-70
2023/06/26 07:17:22;;;;;;;6.30;5.80;;;30.50;99.90;;;;;;5079134;28;20515;-69
2023/06/26 07:19:49;;;;;;;6.53;5.80;;;30.50;99.90;;;;;;5082338;28;20426;-71
2023/06/26 07:22:14;;;;;;;6.33;5.73;;;30.50;99.90;;;;;;5086659;28;20569;-69
2023/06/26 07:24:40;;;;;;;6.07;5.57;;;30.90;99.90;;;;;;5082965;28;20447;-70
2023/06/26 07:27:06;;;;;;;5.63;4.90;;;31.10;99.90;;;;;;5084564;28;20517;-70
2023/06/26 07:29:31;;;;;;;5.27;4.87;;;31.40;99.90;;;;;;5084552;28;20169;-69
2023/06/26 07:31:57;;;;;;;8.60;4.80;;;31.10;99.90;;;;;;5062997;28;20573;-70
2023/06/26 07:34:22;;;;;;;5.97;5.47;;;31.30;99.90;;;;;;5080920;28;20282;-71
2023/06/26 07:36:48;;;;;;;5.60;5.10;;;31.50;99.90;;;;;;5088342;28;20187;-71
2023/06/26 07:39:14;;;;;;;5.10;4.60;;;32.00;99.90;;;;;;5081036;28;20178;-70
2023/06/26 07:41:40;;;;;;;6.43;5.37;;;31.30;99.90;;;;;;5075208;28;20252;-70
2023/06/26 07:44:05;;;;;;;5.77;5.27;;;32.30;99.90;;;;;;5088954;28;20182;-71
2023/06/26 07:46:31;;;;;;;5.60;5.10;;;32.50;99.90;;;;;;5076822;28;20197;-70
2023/06/26 07:48:56;;;;;;;5.97;5.37;;;31.30;99.90;;;;;;5087535;28;20197;-70
2023/06/26 07:51:23;;;;;;;5.53;5.13;;;31.20;99.90;;;;;;5081088;28;20178;-70
2023/06/26 07:53:48;;;;;;;4.97;4.67;;;31.60;99.90;;;;;;5089069;28;20220;-70
2023/06/26 07:56:14;;;;;;;5.77;5.23;;;31.40;99.90;;;;;;5076356;28;20448;-69
2023/06/26 07:58:40;;;;;;;5.43;4.93;;;31.30;99.90;;;;;;5078199;28;20189;-70
2023/06/26 08:01:05;;;;;;;4.80;4.50;;;31.50;99.90;;;;;;5085117;28;20267;-70
2023/06/26 08:03:31;;;;;;;5.40;4.90;;;31.20;99.90;;;;;;5069550;28;20179;-70
2023/06/26 08:05:57;;;;;;;4.73;4.43;;;31.10;99.90;;;;;;5085911;28;20198;-71
2023/06/26 08:08:22;;;;;;;4.80;4.17;;;31.50;99.90;;;;;;5075646;28;20639;-70
2023/06/26 08:10:48;;;;;;;4.57;4.17;;;31.60;99.90;;;;;;5086945;28;20560;-70
2023/06/26 08:13:13;;;;;;;5.13;4.63;;;32.10;99.90;;;;;;5077226;28;20244;-71
2023/06/26 08:15:39;;;;;;;4.50;4.10;;;32.40;99.90;;;;;;5080703;28;20281;-71
2023/06/26 08:18:05;;;;;;;4.00;3.70;;;32.10;99.90;;;;;;5085900;28;20624;-71
2023/06/26 08:20:30;;;;;;;5.17;4.77;;;32.60;99.90;;;;;;5080124;28;20178;-70
2023/06/26 08:22:56;;;;;;;4.63;4.23;;;32.40;99.90;;;;;;5087161;28;20178;-70
2023/06/26 08:25:21;;;;;;;4.17;3.87;;;32.80;99.40;;;;;;5075838;28;20211;-71
2023/06/26 08:27:48;;;;;;;4.77;4.27;;;32.30;99.90;;;;;;5087396;28;20184;-72
2023/06/26 08:30:13;;;;;;;4.93;4.53;;;32.60;99.40;;;;;;5077844;28;20166;-71
2023/06/26 08:32:39;;;;;;;4.80;4.40;;;32.70;99.10;;;;;;5080957;28;20808;-71
2023/06/26 08:35:07;;;;;;;3.90;3.57;;;32.50;99.80;;;;;;5084524;28;20216;-71
2023/06/26 08:37:32;;;;;;;5.60;3.23;;;32.70;98.00;;;;;;5084894;28;20448;-72
2023/06/26 08:40:01;;;;;;;4.33;3.93;;;32.60;99.90;;;;;;5083471;28;20466;-71
2023/06/26 08:42:27;;;;;;;4.67;4.27;;;33.20;97.40;;;;;;5062285;28;20218;-71
2023/06/26 08:44:53;;;;;;;4.33;4.03;;;33.40;97.70;;;;;;5082380;28;20975;-71
2023/06/26 08:47:19;;;;;;;4.77;4.33;;;33.10;98.00;;;;;;5083890;28;20626;-72
2023/06/26 08:49:53;;;;;;;4.10;3.80;;;33.00;98.90;;;;;;5080582;28;20178;-70
2023/06/26 08:52:30;;;;;;;4.23;3.93;;;34.50;95.50;;;;;;5084840;28;20458;-70
2023/06/26 08:54:58;;;;;;;4.70;4.30;;;34.80;94.80;;;;;;5082568;28;20454;-70
2023/06/26 08:57:26;;;;;;;7.27;4.13;;;34.50;93.10;;;;;;5082670;28;20423;-71
2023/06/26 08:59:52;;;;;;;4.53;4.07;;;33.60;92.50;;;;;;5072786;28;20408;-70
2023/06/26 09:02:18;;;;;;;4.23;3.77;;;33.90;94.40;;;;;;5082666;28;20481;-70
2023/06/26 09:04:44;;;;;;;4.00;3.70;;;34.10;93.90;;;;;;5073985;28;20435;-71
2023/06/26 09:07:09;;;;;;;3.70;3.40;;;33.00;94.60;;;;;;5078937;28;20578;-71
2023/06/26 09:09:35;;;;;;;3.70;3.40;;;33.10;94.30;;;;;;5081985;28;20588;-71
2023/06/26 09:12:03;;;;;;;3.70;3.50;;;33.80;94.40;;;;;;5082505;28;20173;-71
2023/06/26 09:14:29;;;;;;;3.83;3.53;;;33.50;92.80;;;;;;5082917;28;20470;-71
2023/06/26 09:16:55;;;;;;;4.40;4.00;;;33.60;94.80;;;;;;5077873;28;20842;-70
2023/06/26 09:19:20;;;;;;;4.57;4.27;;;33.30;96.80;;;;;;5082616;28;20496;-69
2023/06/26 09:21:49;;;;;;;4.80;4.30;;;33.50;94.50;;;;;;5073707;28;20206;-70
2023/06/26 09:24:16;;;;;;;4.03;3.70;;;32.90;92.60;;;;;;5082316;28;20965;-70
2023/06/26 09:26:42;;;;;;;4.10;3.80;;;33.50;94.30;;;;;;5081877;28;20415;-69
2023/06/26 09:29:09;;;;;;;4.13;3.83;;;33.70;94.00;;;;;;5082144;28;20465;-71
2023/06/26 09:31:39;;;;;;;3.70;3.50;;;34.20;94.20;;;;;;5064015;28;20534;-71
2023/06/26 09:34:05;;;;;;;4.23;3.93;;;33.50;94.30;;;;;;5074600;28;20439;-69
2023/06/26 09:36:36;;;;;;;3.43;3.23;;;33.60;94.30;;;;;;5085979;28;20407;-70
2023/06/26 09:39:10;;;;;;;4.63;4.27;;;34.60;92.40;;;;;;5073134;28;20412;-70
2023/06/26 09:41:37;;;;;;;4.00;3.70;;;34.00;92.40;;;;;;5078790;28;20456;-70
2023/06/26 09:44:04;;;;;;;4.20;3.90;;;34.00;92.90;;;;;;5083543;28;20432;-69
2023/06/26 09:46:30;;;;;;;4.40;4.10;;;34.30;92.90;;;;;;5074436;28;20905;-70
2023/06/26 09:49:04;;;;;;;4.23;3.93;;;34.20;90.90;;;;;;5083440;28;20873;-70
2023/06/26 09:51:35;;;;;;;4.27;3.87;;;34.30;90.70;;;;;;5075335;28;20465;-70
2023/06/26 09:54:02;;;;;;;4.70;4.17;;;34.50;91.80;;;;;;5076066;28;20436;-71
2023/06/26 09:56:28;;;;;;;4.40;4.00;;;35.10;90.80;;;;;;5078303;28;20523;-70
2023/06/26 09:58:59;;;;;;;4.13;3.83;;;34.90;87.90;;;;;;5077770;28;20444;-70
2023/06/26 10:01:25;;;;;;;4.07;3.77;;;33.80;90.70;;;;;;5060070;28;20494;-71
2023/06/26 10:03:51;;;;;;;4.07;3.77;;;34.20;90.00;;;;;;5079990;28;20752;-71
2023/06/26 10:06:27;;;;;;;5.03;2.93;;;33.90;89.50;;;;;;5081458;28;20423;-70
2023/06/26 10:08:54;;;;;;;5.20;4.70;;;33.40;91.30;;;;;;5080361;28;20223;-70
2023/06/26 10:11:22;;;;;;;4.33;3.70;;;32.90;92.80;;;;;;5083335;28;20637;-70
2023/06/26 10:13:51;;;;;;;4.60;4.20;;;33.00;92.40;;;;;;5079297;28;20416;-70
2023/06/26 10:16:27;;;;;;;4.37;3.97;;;32.80;91.20;;;;;;5073873;28;20419;-70
2023/06/26 10:18:56;;;;;;;4.70;4.30;;;33.00;92.40;;;;;;5079256;28;20850;-69
2023/06/26 10:21:23;;;;;;;4.33;4.03;;;32.40;91.60;;;;;;5080807;28;20955;-70
2023/06/26 10:23:51;;;;;;;4.53;4.23;;;31.80;92.70;;;;;;5075633;28;20409;-71
2023/06/26 10:26:20;;;;;;;5.90;3.87;;;31.80;93.90;;;;;;5075334;28;20426;-71
2023/06/26 10:28:51;;;;;;;4.90;4.50;;;31.60;92.80;;;;;;5080692;28;20405;-70
2023/06/26 10:31:21;;;;;;;4.90;4.37;;;31.40;93.40;;;;;;5076532;28;20418;-71
2023/06/26 10:33:47;;;;;;;4.20;3.80;;;31.30;93.70;;;;;;5061404;28;20407;-71
2023/06/26 10:36:18;;;;;;;4.33;4.03;;;31.30;93.90;;;;;;5082747;28;20407;-69
2023/06/26 10:38:56;;;;;;;4.60;4.20;;;31.10;93.80;;;;;;5079752;28;20779;-69
2023/06/26 10:41:23;;;;;;;4.70;4.23;;;31.00;92.50;;;;;;5072283;28;20546;-71
2023/06/26 10:44:08;;;;;;;4.27;3.97;;;31.30;92.30;;;;;;5065830;28;20476;-69
2023/06/26 10:46:48;;;;;;;4.07;3.73;;;31.50;91.70;;;;;;5073918;28;20423;-70
2023/06/26 10:49:13;;;;;;;5.30;4.13;;;31.60;93.20;;;;;;5072138;28;20435;-70
2023/06/26 10:51:49;;;;;;;4.23;3.80;;;31.30;94.90;;;;;;5078242;28;20408;-70
2023/06/26 10:54:19;;;;;;;4.40;3.70;;;31.30;94.90;;;;;;5083951;28;20289;-70
2023/06/26 10:56:50;;;;;;;4.50;4.10;;;31.40;94.20;;;;;;5074069;28;20447;-70
2023/06/26 10:59:23;;;;;;;4.70;3.90;;;31.50;94.60;;;;;;5081643;28;20426;-70
2023/06/26 11:01:56;;;;;;;4.60;4.20;;;31.90;93.10;;;;;;5070691;28;20469;-71
2023/06/26 11:04:40;;;;;;;5.33;3.73;;;32.00;92.90;;;;;;5081012;28;20510;-70
2023/06/26 11:07:26;;;;;;;4.13;3.83;;;31.60;93.70;;;;;;5067601;28;20412;-69
2023/06/26 11:10:10;;;;;;;4.40;4.00;;;31.40;93.30;;;;;;5080945;28;20923;-69
2023/06/26 11:12:43;;;;;;;5.00;4.33;;;31.70;92.80;;;;;;5080916;28;20729;-70
2023/06/26 11:15:10;;;;;;;3.77;3.47;;;31.60;94.40;;;;;;5071854;28;20481;-70
2023/06/26 11:17:36;;;;;;;4.60;4.30;;;31.70;94.40;;;;;;5085174;28;20909;-70
2023/06/26 11:20:07;;;;;;;5.10;4.70;;;31.40;93.40;;;;;;5077243;28;20408;-70
2023/06/26 11:22:35;;;;;;;5.77;4.13;;;31.50;93.80;;;;;;5083458;28;20487;-70
2023/06/26 11:25:02;;;;;;;5.83;4.07;;;31.50;93.00;;;;;;5071666;28;20456;-70
2023/06/26 11:27:37;;;;;;;5.90;4.20;;;31.60;93.80;;;;;;5080266;28;20964;-72
2023/06/26 11:30:03;;;;;;;4.80;4.40;;;31.50;93.70;;;;;;5072689;28;20423;-70
2023/06/26 11:32:29;;;;;;;4.23;3.63;;;31.50;93.10;;;;;;5080688;28;20784;-70
2023/06/26 11:34:55;;;;;;;4.47;4.13;;;31.50;93.60;;;;;;5077630;28;20435;-70
2023/06/26 11:37:22;;;;;;;4.60;4.20;;;31.50;94.40;;;;;;5085838;28;20579;-70
2023/06/26 11:39:48;;;;;;;4.33;4.03;;;31.50;93.30;;;;;;5114076;22;20580;-69
2023/06/26 11:42:13;;;;;;;4.83;4.33;;;31.20;93.20;;;;;;5072327;28;20460;-69
2023/06/26 11:44:43;;;;;;;7.83;4.57;;;31.20;94.10;;;;;;5071109;28;20208;-69
2023/06/26 11:47:14;;;;;;;5.20;4.80;;;31.40;94.00;;;;;;5091718;28;20164;-69
2023/06/26 11:49:45;;;;;;;6.00;3.67;;;31.70;93.50;;;;;;5093851;28;20999;-69
2023/06/26 11:52:11;;;;;;;4.60;4.20;;;31.90;93.10;;;;;;5092108;28;20400;-69
2023/06/26 11:54:37;;;;;;;4.50;4.10;;;32.20;93.00;;;;;;5093520;28;20407;-71
2023/06/26 11:57:03;;;;;;;4.90;4.50;;;32.00;93.30;;;;;;5085926;28;20405;-70
2023/06/26 11:59:41;;;;;;;4.70;4.30;;;31.80;93.10;;;;;;5093896;28;20431;-69
2023/06/26 12:02:09;;;;;;;5.93;5.43;;;31.80;92.10;;;;;;5088434;28;20270;-69
2023/06/26 12:04:37;;;;;;;4.23;3.90;;;31.80;90.90;;;;;;5092502;28;20414;-69
2023/06/26 12:07:05;;;;;;;5.57;5.07;;;31.80;91.40;;;;;;5089908;28;20430;-69
2023/06/26 12:09:33;;;;;;;5.40;4.80;;;31.90;92.20;;;;;;5091423;28;20427;-69
2023/06/26 12:11:59;;;;;;;5.30;4.80;;;31.90;92.60;;;;;;5090246;28;20408;-69
2023/06/26 12:14:28;;;;;;;5.33;4.80;;;31.90;93.00;;;;;;5088388;28;20403;-68
2023/06/26 12:16:54;;;;;;;5.30;4.47;;;31.90;92.20;;;;;;5093276;28;20960;-69
2023/06/26 12:19:28;;;;;;;7.47;4.27;;;31.80;93.20;;;;;;5089035;28;20776;-69
2023/06/26 12:21:56;;;;;;;6.63;5.30;;;32.00;92.50;;;;;;5091600;28;20480;-70
2023/06/26 12:24:22;;;;;;;5.07;4.67;;;32.10;91.50;;;;;;5088290;28;20538;-69
2023/06/26 12:26:51;;;;;;;5.13;4.73;;;31.90;92.50;;;;;;5090738;28;20404;-71
2023/06/26 12:29:18;;;;;;;5.40;5.00;;;32.00;91.90;;;;;;5093118;28;20427;-68
2023/06/26 12:31:53;;;;;;;4.63;3.83;;;32.30;91.60;;;;;;5087483;28;20418;-68
2023/06/26 12:34:40;;;;;;;5.03;4.63;;;32.50;92.00;;;;;;5092315;28;20847;-69
2023/06/26 12:37:08;;;;;;;4.30;4.00;;;32.20;91.90;;;;;;5088174;28;20765;-68
2023/06/26 12:39:47;;;;;;;4.27;3.87;;;31.90;91.30;;;;;;5090959;28;20439;-68